sensor_id;sensor_type;location;lat;lon;timestamp;temperature;humidity
32612;DHT22;19030;49.478;8.986;2023-01-24T00:01:59;2.50;99.90
32612;DHT22;19030;49.478;8.986;2023-01-24T00:03:59;2.60;99.90
32612;DHT22;19030;49.478;8.986;2023-01-24T00:06:00;2.60;99.90
32612;DHT22;19030;49.478;8.986;2023-01-24T00:08:00;2.60;99.90
32612;DHT22;19030;49.478;8.986;2023-01-24T00:10:01;2.60;99.90
32612;DHT22;19030;49.478;8.986;2023-01-24T00:12:01;2.60;99.90
32612;DHT22;19030;49.478;8.986;2023-01-24T00:14:02;2.60;99.90
32612;DHT22;19030;49.478;8.986;2023-01-24T00:16:17;2.60;99.90
32612;DHT22;19030;49.478;8.986;2023-01-24T00:18:18;2.60;99.90
32612;DHT22;19030;49.478;8.986;2023-01-24T00:20:19;2.60;99.90
32612;DHT22;19030;49.478;8.986;2023-01-24T00:22:19;2.60;99.90
32612;DHT22;19030;49.478;8.986;2023-01-24T00:24:20;2.60;99.90
32612;DHT22;19030;49.478;8.986;2023-01-24T00:26:22;2.60;99.90
32612;DHT22;19030;49.478;8.986;2023-01-24T00:28:23;2.60;99.90
32612;DHT22;19030;49.478;8.986;2023-01-24T00:30:24;2.70;99.90
32612;DHT22;19030;49.478;8.986;2023-01-24T00:32:24;2.60;99.90
32612;DHT22;19030;49.478;8.986;2023-01-24T00:34:25;2.60;99.90
32612;DHT22;19030;49.478;8.986;2023-01-24T00:36:25;2.60;99.90
32612;DHT22;19030;49.478;8.986;2023-01-24T00:38:28;2.60;99.90
32612;DHT22;19030;49.478;8.986;2023-01-24T00:40:31;2.60;99.90
32612;DHT22;19030;49.478;8.986;2023-01-24T00:42:31;2.60;99.90
32612;DHT22;19030;49.478;8.986;2023-01-24T00:44:32;2.50;99.90
32612;DHT22;19030;49.478;8.986;2023-01-24T00:46:32;2.50;99.90
32612;DHT22;19030;49.478;8.986;2023-01-24T00:48:33;2.60;99.90
32612;DHT22;19030;49.478;8.986;2023-01-24T00:50:34;2.60;99.90
32612;DHT22;19030;49.478;8.986;2023-01-24T00:52:35;2.50;99.90
32612;DHT22;19030;49.478;8.986;2023-01-24T00:54:35;2.50;99.90
32612;DHT22;19030;49.478;8.986;2023-01-24T00:56:36;2.50;99.90
32612;DHT22;19030;49.478;8.986;2023-01-24T00:58:36;2.50;99.90
32612;DHT22;19030;49.478;8.986;2023-01-24T01:00:37;2.50;99.90
32612;DHT22;19030;49.478;8.986;2023-01-24T01:02:40;2.50;99.90
32612;DHT22;19030;49.478;8.986;2023-01-24T01:04:41;2.60;99.90
32612;DHT22;19030;49.478;8.986;2023-01-24T01:06:43;2.50;99.90
32612;DHT22;19030;49.478;8.986;2023-01-24T01:08:44;2.50;99.90
32612;DHT22;19030;49.478;8.986;2023-01-24T01:10:44;2.50;99.90
32612;DHT22;19030;49.478;8.986;2023-01-24T01:12:45;2.50;99.90
32612;DHT22;19030;49.478;8.986;2023-01-24T01:14:45;2.50;99.90
32612;DHT22;19030;49.478;8.986;2023-01-24T01:16:46;2.50;99.90
32612;DHT22;19030;49.478;8.986;2023-01-24T01:18:47;2.50;99.90
32612;DHT22;19030;49.478;8.986;2023-01-24T01:20:49;2.50;99.90
32612;DHT22;19030;49.478;8.986;2023-01-24T01:22:51;2.50;99.90
32612;DHT22;19030;49.478;8.986;2023-01-24T01:24:51;2.50;99.90
32612;DHT22;19030;49.478;8.986;2023-01-24T01:26:52;2.50;99.90
32612;DHT22;19030;49.478;8.986;2023-01-24T01:28:52;2.50;99.90
32612;DHT22;19030;49.478;8.986;2023-01-24T01:30:54;2.50;99.90
32612;DHT22;19030;49.478;8.986;2023-01-24T01:32:54;2.50;99.90
32612;DHT22;19030;49.478;8.986;2023-01-24T01:34:55;2.50;99.90
32612;DHT22;19030;49.478;8.986;2023-01-24T01:36:56;2.50;99.90
32612;DHT22;19030;49.478;8.986;2023-01-24T01:38:56;2.50;99.90
32612;DHT22;19030;49.478;8.986;2023-01-24T01:40:57;2.50;99.90
32612;DHT22;19030;49.478;8.986;2023-01-24T01:42:58;2.50;99.90
32612;DHT22;19030;49.478;8.986;2023-01-24T01:47:31;2.50;99.90
32612;DHT22;19030;49.478;8.986;2023-01-24T01:49:34;2.50;99.90
32612;DHT22;19030;49.478;8.986;2023-01-24T01:51:44;2.50;99.90
32612;DHT22;19030;49.478;8.986;2023-01-24T01:54:02;2.50;99.90
32612;DHT22;19030;49.478;8.986;2023-01-24T01:56:09;2.50;99.90
32612;DHT22;19030;49.478;8.986;2023-01-24T01:58:11;2.50;99.90
32612;DHT22;19030;49.478;8.986;2023-01-24T02:00:14;2.50;99.90
32612;DHT22;19030;49.478;8.986;2023-01-24T02:02:18;2.50;99.90
32612;DHT22;19030;49.478;8.986;2023-01-24T02:04:22;2.50;99.90
32612;DHT22;19030;49.478;8.986;2023-01-24T02:08:48;2.50;99.90
32612;DHT22;19030;49.478;8.986;2023-01-24T02:10:51;2.50;99.90
32612;DHT22;19030;49.478;8.986;2023-01-24T02:13:11;2.50;99.90
32612;DHT22;19030;49.478;8.986;2023-01-24T02:15:14;2.50;99.90
32612;DHT22;19030;49.478;8.986;2023-01-24T02:17:34;2.50;99.90
32612;DHT22;19030;49.478;8.986;2023-01-24T02:19:51;2.50;99.90
32612;DHT22;19030;49.478;8.986;2023-01-24T02:21:57;2.50;99.90
32612;DHT22;19030;49.478;8.986;2023-01-24T02:24:18;2.50;99.90
32612;DHT22;19030;49.478;8.986;2023-01-24T02:26:23;2.50;99.90
32612;DHT22;19030;49.478;8.986;2023-01-24T02:28:24;2.50;99.90
32612;DHT22;19030;49.478;8.986;2023-01-24T02:30:26;2.40;99.90
32612;DHT22;19030;49.478;8.986;2023-01-24T02:32:26;2.50;99.90
32612;DHT22;19030;49.478;8.986;2023-01-24T02:34:28;2.50;99.90
32612;DHT22;19030;49.478;8.986;2023-01-24T02:36:36;2.50;99.90
32612;DHT22;19030;49.478;8.986;2023-01-24T02:38:44;2.50;99.90
32612;DHT22;19030;49.478;8.986;2023-01-24T02:40:50;2.50;99.90
32612;DHT22;19030;49.478;8.986;2023-01-24T02:42:52;2.50;99.90
32612;DHT22;19030;49.478;8.986;2023-01-24T02:45:16;2.60;99.90
32612;DHT22;19030;49.478;8.986;2023-01-24T02:47:19;2.50;99.90
32612;DHT22;19030;49.478;8.986;2023-01-24T02:49:19;2.50;99.90
32612;DHT22;19030;49.478;8.986;2023-01-24T02:51:20;2.50;99.90
32612;DHT22;19030;49.478;8.986;2023-01-24T02:53:39;2.50;99.90
32612;DHT22;19030;49.478;8.986;2023-01-24T02:55:39;2.50;99.90
32612;DHT22;19030;49.478;8.986;2023-01-24T02:57:59;2.50;99.90
32612;DHT22;19030;49.478;8.986;2023-01-24T03:00:06;2.50;99.90
32612;DHT22;19030;49.478;8.986;2023-01-24T03:02:07;2.50;99.90
32612;DHT22;19030;49.478;8.986;2023-01-24T03:04:08;2.50;99.90
32612;DHT22;19030;49.478;8.986;2023-01-24T03:06:12;2.50;99.90
32612;DHT22;19030;49.478;8.986;2023-01-24T03:08:13;2.50;99.90
32612;DHT22;19030;49.478;8.986;2023-01-24T03:10:16;2.40;99.90
32612;DHT22;19030;49.478;8.986;2023-01-24T03:12:21;2.50;99.90
32612;DHT22;19030;49.478;8.986;2023-01-24T03:14:40;2.50;99.90
32612;DHT22;19030;49.478;8.986;2023-01-24T03:17:00;2.50;99.90
32612;DHT22;19030;49.478;8.986;2023-01-24T03:19:19;2.50;99.90
32612;DHT22;19030;49.478;8.986;2023-01-24T03:21:38;2.50;99.90
32612;DHT22;19030;49.478;8.986;2023-01-24T03:23:57;2.50;99.90
32612;DHT22;19030;49.478;8.986;2023-01-24T03:26:17;2.50;99.90
32612;DHT22;19030;49.478;8.986;2023-01-24T03:28:39;2.50;99.90
32612;DHT22;19030;49.478;8.986;2023-01-24T03:31:00;2.50;99.90
32612;DHT22;19030;49.478;8.986;2023-01-24T03:33:19;2.50;99.90
32612;DHT22;19030;49.478;8.986;2023-01-24T03:35:41;2.40;99.90
32612;DHT22;19030;49.478;8.986;2023-01-24T03:37:41;2.40;99.90
32612;DHT22;19030;49.478;8.986;2023-01-24T03:40:13;2.40;99.90
32612;DHT22;19030;49.478;8.986;2023-01-24T03:42:14;2.40;99.90
32612;DHT22;19030;49.478;8.986;2023-01-24T03:44:15;2.40;99.90
32612;DHT22;19030;49.478;8.986;2023-01-24T03:46:17;2.40;99.90
32612;DHT22;19030;49.478;8.986;2023-01-24T03:48:22;2.40;99.90
32612;DHT22;19030;49.478;8.986;2023-01-24T03:50:32;2.40;99.90
32612;DHT22;19030;49.478;8.986;2023-01-24T03:52:52;2.50;99.90
32612;DHT22;19030;49.478;8.986;2023-01-24T03:54:54;2.40;99.90
32612;DHT22;19030;49.478;8.986;2023-01-24T03:56:54;2.40;99.90
32612;DHT22;19030;49.478;8.986;2023-01-24T03:58:56;2.40;99.90
32612;DHT22;19030;49.478;8.986;2023-01-24T04:01:00;2.40;99.90
32612;DHT22;19030;49.478;8.986;2023-01-24T04:03:20;2.40;99.90
32612;DHT22;19030;49.478;8.986;2023-01-24T04:05:20;2.40;99.90
32612;DHT22;19030;49.478;8.986;2023-01-24T04:07:22;2.40;99.90
32612;DHT22;19030;49.478;8.986;2023-01-24T04:09:22;2.40;99.90
32612;DHT22;19030;49.478;8.986;2023-01-24T04:11:23;2.40;99.90
32612;DHT22;19030;49.478;8.986;2023-01-24T04:13:29;2.40;99.90
32612;DHT22;19030;49.478;8.986;2023-01-24T04:15:32;2.40;99.90
32612;DHT22;19030;49.478;8.986;2023-01-24T04:17:58;2.40;99.90
32612;DHT22;19030;49.478;8.986;2023-01-24T04:19:58;2.40;99.90
32612;DHT22;19030;49.478;8.986;2023-01-24T04:21:59;2.40;99.90
32612;DHT22;19030;49.478;8.986;2023-01-24T04:24:00;2.40;99.90
32612;DHT22;19030;49.478;8.986;2023-01-24T04:26:03;2.40;99.90
32612;DHT22;19030;49.478;8.986;2023-01-24T04:28:05;2.40;99.90
32612;DHT22;19030;49.478;8.986;2023-01-24T04:30:09;2.40;99.90
32612;DHT22;19030;49.478;8.986;2023-01-24T04:32:12;2.40;99.90
32612;DHT22;19030;49.478;8.986;2023-01-24T04:34:34;2.40;99.90
32612;DHT22;19030;49.478;8.986;2023-01-24T04:36:35;2.40;99.90
32612;DHT22;19030;49.478;8.986;2023-01-24T04:38:37;2.40;99.90
32612;DHT22;19030;49.478;8.986;2023-01-24T04:40:57;2.40;99.90
32612;DHT22;19030;49.478;8.986;2023-01-24T04:42:58;2.40;99.90
32612;DHT22;19030;49.478;8.986;2023-01-24T04:44:59;2.40;99.90
32612;DHT22;19030;49.478;8.986;2023-01-24T04:47:00;2.40;99.90
32612;DHT22;19030;49.478;8.986;2023-01-24T04:49:00;2.40;99.90
32612;DHT22;19030;49.478;8.986;2023-01-24T04:51:09;2.40;99.90
32612;DHT22;19030;49.478;8.986;2023-01-24T04:53:10;2.40;99.90
32612;DHT22;19030;49.478;8.986;2023-01-24T04:55:10;2.40;99.90
32612;DHT22;19030;49.478;8.986;2023-01-24T04:57:12;2.40;99.90
32612;DHT22;19030;49.478;8.986;2023-01-24T04:59:14;2.40;99.90
32612;DHT22;19030;49.478;8.986;2023-01-24T05:01:17;2.40;99.90
32612;DHT22;19030;49.478;8.986;2023-01-24T05:03:28;2.40;99.90
32612;DHT22;19030;49.478;8.986;2023-01-24T05:05:29;2.40;99.90
32612;DHT22;19030;49.478;8.986;2023-01-24T05:07:29;2.40;99.90
32612;DHT22;19030;49.478;8.986;2023-01-24T05:09:36;2.40;99.90
32612;DHT22;19030;49.478;8.986;2023-01-24T05:11:41;2.40;99.90
32612;DHT22;19030;49.478;8.986;2023-01-24T05:13:43;2.40;99.90
32612;DHT22;19030;49.478;8.986;2023-01-24T05:15:47;2.40;99.90
32612;DHT22;19030;49.478;8.986;2023-01-24T05:17:49;2.40;99.90
32612;DHT22;19030;49.478;8.986;2023-01-24T05:19:53;2.50;99.90
32612;DHT22;19030;49.478;8.986;2023-01-24T05:21:53;2.50;99.90
32612;DHT22;19030;49.478;8.986;2023-01-24T05:23:54;2.40;99.90
32612;DHT22;19030;49.478;8.986;2023-01-24T05:26:01;2.40;99.90
32612;DHT22;19030;49.478;8.986;2023-01-24T05:28:04;2.40;99.90
32612;DHT22;19030;49.478;8.986;2023-01-24T05:30:10;2.40;99.90
32612;DHT22;19030;49.478;8.986;2023-01-24T05:32:11;2.40;99.90
32612;DHT22;19030;49.478;8.986;2023-01-24T05:34:11;2.50;99.90
32612;DHT22;19030;49.478;8.986;2023-01-24T05:36:15;2.40;99.90
32612;DHT22;19030;49.478;8.986;2023-01-24T05:38:17;2.40;99.90
32612;DHT22;19030;49.478;8.986;2023-01-24T05:40:21;2.50;99.90
32612;DHT22;19030;49.478;8.986;2023-01-24T05:42:21;2.50;99.90
32612;DHT22;19030;49.478;8.986;2023-01-24T05:44:25;2.50;99.90
32612;DHT22;19030;49.478;8.986;2023-01-24T05:46:26;2.50;99.90
32612;DHT22;19030;49.478;8.986;2023-01-24T05:48:36;2.40;99.90
32612;DHT22;19030;49.478;8.986;2023-01-24T05:50:37;2.40;99.90
32612;DHT22;19030;49.478;8.986;2023-01-24T05:52:44;2.50;99.90
32612;DHT22;19030;49.478;8.986;2023-01-24T05:54:45;2.50;99.90
32612;DHT22;19030;49.478;8.986;2023-01-24T05:57:07;2.50;99.90
32612;DHT22;19030;49.478;8.986;2023-01-24T05:59:31;2.50;99.90
32612;DHT22;19030;49.478;8.986;2023-01-24T06:01:32;2.50;99.90
32612;DHT22;19030;49.478;8.986;2023-01-24T06:03:33;2.50;99.90
32612;DHT22;19030;49.478;8.986;2023-01-24T06:05:35;2.40;99.90
32612;DHT22;19030;49.478;8.986;2023-01-24T06:07:35;2.50;99.90
32612;DHT22;19030;49.478;8.986;2023-01-24T06:09:36;2.50;99.90
32612;DHT22;19030;49.478;8.986;2023-01-24T06:11:37;2.50;99.90
32612;DHT22;19030;49.478;8.986;2023-01-24T06:13:53;2.50;99.90
32612;DHT22;19030;49.478;8.986;2023-01-24T06:16:00;2.50;99.90
32612;DHT22;19030;49.478;8.986;2023-01-24T06:18:05;2.50;99.90
32612;DHT22;19030;49.478;8.986;2023-01-24T06:20:10;2.50;99.90
32612;DHT22;19030;49.478;8.986;2023-01-24T06:24:23;2.50;99.90
32612;DHT22;19030;49.478;8.986;2023-01-24T06:26:35;2.50;99.90
32612;DHT22;19030;49.478;8.986;2023-01-24T06:28:36;2.50;99.90
32612;DHT22;19030;49.478;8.986;2023-01-24T06:30:39;2.40;99.90
32612;DHT22;19030;49.478;8.986;2023-01-24T06:33:01;2.50;99.90
32612;DHT22;19030;49.478;8.986;2023-01-24T06:35:20;2.50;99.90
32612;DHT22;19030;49.478;8.986;2023-01-24T06:37:49;2.50;99.90
32612;DHT22;19030;49.478;8.986;2023-01-24T06:39:52;2.50;99.90
32612;DHT22;19030;49.478;8.986;2023-01-24T06:41:52;2.50;99.90
32612;DHT22;19030;49.478;8.986;2023-01-24T06:43:53;2.50;99.90
32612;DHT22;19030;49.478;8.986;2023-01-24T06:45:55;2.50;99.90
32612;DHT22;19030;49.478;8.986;2023-01-24T06:47:58;2.50;99.90
32612;DHT22;19030;49.478;8.986;2023-01-24T06:49:59;2.50;99.90
32612;DHT22;19030;49.478;8.986;2023-01-24T06:51:59;2.50;99.90
32612;DHT22;19030;49.478;8.986;2023-01-24T06:54:00;2.50;99.90
32612;DHT22;19030;49.478;8.986;2023-01-24T06:56:01;2.50;99.90
32612;DHT22;19030;49.478;8.986;2023-01-24T06:58:02;2.50;99.90
32612;DHT22;19030;49.478;8.986;2023-01-24T07:00:04;2.50;99.90
32612;DHT22;19030;49.478;8.986;2023-01-24T07:02:05;2.50;99.90
32612;DHT22;19030;49.478;8.986;2023-01-24T07:04:06;2.50;99.90
32612;DHT22;19030;49.478;8.986;2023-01-24T07:06:06;2.50;99.90
32612;DHT22;19030;49.478;8.986;2023-01-24T07:08:07;2.50;99.90
32612;DHT22;19030;49.478;8.986;2023-01-24T07:10:08;2.50;99.90
32612;DHT22;19030;49.478;8.986;2023-01-24T07:12:09;2.50;99.90
32612;DHT22;19030;49.478;8.986;2023-01-24T07:14:09;2.50;99.90
32612;DHT22;19030;49.478;8.986;2023-01-24T07:16:10;2.50;99.90
32612;DHT22;19030;49.478;8.986;2023-01-24T07:18:12;2.50;99.90
32612;DHT22;19030;49.478;8.986;2023-01-24T07:20:13;2.50;99.90
32612;DHT22;19030;49.478;8.986;2023-01-24T07:22:14;2.50;99.90
32612;DHT22;19030;49.478;8.986;2023-01-24T07:24:18;2.50;99.90
32612;DHT22;19030;49.478;8.986;2023-01-24T07:26:19;2.50;99.90
32612;DHT22;19030;49.478;8.986;2023-01-24T07:28:20;2.50;99.90
32612;DHT22;19030;49.478;8.986;2023-01-24T07:30:21;2.50;99.90
32612;DHT22;19030;49.478;8.986;2023-01-24T07:32:21;2.60;99.90
32612;DHT22;19030;49.478;8.986;2023-01-24T07:34:22;2.60;99.90
32612;DHT22;19030;49.478;8.986;2023-01-24T07:36:23;2.60;99.90
32612;DHT22;19030;49.478;8.986;2023-01-24T07:38:23;2.60;99.90
32612;DHT22;19030;49.478;8.986;2023-01-24T07:40:24;2.60;99.90
32612;DHT22;19030;49.478;8.986;2023-01-24T07:42:24;2.60;99.90
32612;DHT22;19030;49.478;8.986;2023-01-24T07:44:25;2.60;99.90
32612;DHT22;19030;49.478;8.986;2023-01-24T07:46:25;2.60;99.90
32612;DHT22;19030;49.478;8.986;2023-01-24T07:48:26;2.60;99.90
32612;DHT22;19030;49.478;8.986;2023-01-24T07:50:27;2.60;99.90
32612;DHT22;19030;49.478;8.986;2023-01-24T07:52:30;2.60;99.90
32612;DHT22;19030;49.478;8.986;2023-01-24T07:54:31;2.60;99.90
32612;DHT22;19030;49.478;8.986;2023-01-24T07:56:31;2.70;99.90
32612;DHT22;19030;49.478;8.986;2023-01-24T07:58:32;2.70;99.90
32612;DHT22;19030;49.478;8.986;2023-01-24T08:00:32;2.70;99.90
32612;DHT22;19030;49.478;8.986;2023-01-24T08:02:33;2.70;99.90
32612;DHT22;19030;49.478;8.986;2023-01-24T08:04:33;2.70;99.90
32612;DHT22;19030;49.478;8.986;2023-01-24T08:06:34;2.70;99.90
32612;DHT22;19030;49.478;8.986;2023-01-24T08:08:34;2.70;99.90
32612;DHT22;19030;49.478;8.986;2023-01-24T08:10:35;2.70;99.90
32612;DHT22;19030;49.478;8.986;2023-01-24T08:12:36;2.70;99.90
32612;DHT22;19030;49.478;8.986;2023-01-24T08:14:36;2.70;99.90
32612;DHT22;19030;49.478;8.986;2023-01-24T08:16:37;2.70;99.90
32612;DHT22;19030;49.478;8.986;2023-01-24T08:18:38;2.70;99.90
32612;DHT22;19030;49.478;8.986;2023-01-24T08:20:39;2.70;99.90
32612;DHT22;19030;49.478;8.986;2023-01-24T08:22:40;2.70;99.90
32612;DHT22;19030;49.478;8.986;2023-01-24T08:24:41;2.80;99.90
32612;DHT22;19030;49.478;8.986;2023-01-24T08:26:41;2.70;99.90
32612;DHT22;19030;49.478;8.986;2023-01-24T08:28:42;2.70;99.90
32612;DHT22;19030;49.478;8.986;2023-01-24T08:30:43;2.70;99.90
32612;DHT22;19030;49.478;8.986;2023-01-24T08:32:44;2.70;99.90
32612;DHT22;19030;49.478;8.986;2023-01-24T08:34:45;2.70;99.90
32612;DHT22;19030;49.478;8.986;2023-01-24T08:36:45;2.70;99.90
32612;DHT22;19030;49.478;8.986;2023-01-24T08:38:46;2.80;99.90
32612;DHT22;19030;49.478;8.986;2023-01-24T08:40:46;2.80;99.90
32612;DHT22;19030;49.478;8.986;2023-01-24T08:42:47;2.80;99.90
32612;DHT22;19030;49.478;8.986;2023-01-24T08:44:47;2.90;99.90
32612;DHT22;19030;49.478;8.986;2023-01-24T08:46:48;2.90;99.90
32612;DHT22;19030;49.478;8.986;2023-01-24T08:48:48;2.90;99.90
32612;DHT22;19030;49.478;8.986;2023-01-24T08:50:49;3.00;99.90
32612;DHT22;19030;49.478;8.986;2023-01-24T08:52:54;3.00;99.90
32612;DHT22;19030;49.478;8.986;2023-01-24T08:54:55;3.00;99.90
32612;DHT22;19030;49.478;8.986;2023-01-24T08:56:55;3.00;99.90
32612;DHT22;19030;49.478;8.986;2023-01-24T08:58:56;3.00;99.90
32612;DHT22;19030;49.478;8.986;2023-01-24T09:00:56;3.00;99.90
32612;DHT22;19030;49.478;8.986;2023-01-24T09:02:57;3.00;99.90
32612;DHT22;19030;49.478;8.986;2023-01-24T09:05:01;2.90;99.90
32612;DHT22;19030;49.478;8.986;2023-01-24T09:07:02;3.00;99.90
32612;DHT22;19030;49.478;8.986;2023-01-24T09:09:02;3.00;99.90
32612;DHT22;19030;49.478;8.986;2023-01-24T09:11:04;3.00;99.90
32612;DHT22;19030;49.478;8.986;2023-01-24T09:13:05;3.00;99.90
32612;DHT22;19030;49.478;8.986;2023-01-24T09:15:06;3.00;99.90
32612;DHT22;19030;49.478;8.986;2023-01-24T09:17:07;3.00;99.90
32612;DHT22;19030;49.478;8.986;2023-01-24T09:19:11;3.00;99.90
32612;DHT22;19030;49.478;8.986;2023-01-24T09:21:11;3.00;99.90
32612;DHT22;19030;49.478;8.986;2023-01-24T09:23:13;3.10;99.90
32612;DHT22;19030;49.478;8.986;2023-01-24T09:25:14;3.10;99.90
32612;DHT22;19030;49.478;8.986;2023-01-24T09:27:15;3.10;99.90
32612;DHT22;19030;49.478;8.986;2023-01-24T09:29:15;3.10;99.90
32612;DHT22;19030;49.478;8.986;2023-01-24T09:31:16;3.10;99.90
32612;DHT22;19030;49.478;8.986;2023-01-24T09:33:17;3.10;99.90
32612;DHT22;19030;49.478;8.986;2023-01-24T09:35:18;3.10;99.90
32612;DHT22;19030;49.478;8.986;2023-01-24T09:37:19;3.10;99.90
32612;DHT22;19030;49.478;8.986;2023-01-24T09:39:19;3.20;99.90
32612;DHT22;19030;49.478;8.986;2023-01-24T09:43:51;3.20;99.90
32612;DHT22;19030;49.478;8.986;2023-01-24T09:46:00;3.20;99.90
32612;DHT22;19030;49.478;8.986;2023-01-24T09:48:11;3.20;99.90
32612;DHT22;19030;49.478;8.986;2023-01-24T09:50:23;3.30;99.90
32612;DHT22;19030;49.478;8.986;2023-01-24T09:52:36;3.30;99.90
32612;DHT22;19030;49.478;8.986;2023-01-24T09:54:58;3.30;99.90
32612;DHT22;19030;49.478;8.986;2023-01-24T09:57:00;3.30;99.90
32612;DHT22;19030;49.478;8.986;2023-01-24T09:59:11;3.40;99.90
32612;DHT22;19030;49.478;8.986;2023-01-24T10:01:14;3.40;99.90
32612;DHT22;19030;49.478;8.986;2023-01-24T10:03:20;3.40;99.90
32612;DHT22;19030;49.478;8.986;2023-01-24T10:05:21;3.40;99.90
32612;DHT22;19030;49.478;8.986;2023-01-24T10:10:12;3.40;99.90
32612;DHT22;19030;49.478;8.986;2023-01-24T10:12:43;3.40;99.90
32612;DHT22;19030;49.478;8.986;2023-01-24T10:15:06;3.40;99.90
32612;DHT22;19030;49.478;8.986;2023-01-24T10:24:38;3.40;99.90
32612;DHT22;19030;49.478;8.986;2023-01-24T10:26:50;3.50;99.90
32612;DHT22;19030;49.478;8.986;2023-01-24T10:28:54;3.40;99.90
32612;DHT22;19030;49.478;8.986;2023-01-24T10:30:56;3.40;99.90
32612;DHT22;19030;49.478;8.986;2023-01-24T10:33:02;3.40;99.90
32612;DHT22;19030;49.478;8.986;2023-01-24T10:35:13;3.50;99.90
32612;DHT22;19030;49.478;8.986;2023-01-24T10:39:22;3.50;99.90
32612;DHT22;19030;49.478;8.986;2023-01-24T10:41:24;3.60;99.90
32612;DHT22;19030;49.478;8.986;2023-01-24T10:43:28;3.60;99.90
32612;DHT22;19030;49.478;8.986;2023-01-24T10:45:46;3.60;99.90
32612;DHT22;19030;49.478;8.986;2023-01-24T10:47:53;3.70;99.90
32612;DHT22;19030;49.478;8.986;2023-01-24T10:50:01;3.60;99.90
32612;DHT22;19030;49.478;8.986;2023-01-24T10:52:30;3.60;99.90
32612;DHT22;19030;49.478;8.986;2023-01-24T10:54:30;3.60;99.90
32612;DHT22;19030;49.478;8.986;2023-01-24T10:56:38;3.60;99.90
32612;DHT22;19030;49.478;8.986;2023-01-24T10:58:40;3.60;99.90
32612;DHT22;19030;49.478;8.986;2023-01-24T11:00:43;3.60;99.90
32612;DHT22;19030;49.478;8.986;2023-01-24T11:02:48;3.60;99.90
32612;DHT22;19030;49.478;8.986;2023-01-24T11:04:59;3.60;99.90
32612;DHT22;19030;49.478;8.986;2023-01-24T11:07:00;3.60;99.90
32612;DHT22;19030;49.478;8.986;2023-01-24T11:09:12;3.60;99.90
32612;DHT22;19030;49.478;8.986;2023-01-24T11:11:22;3.60;99.90
32612;DHT22;19030;49.478;8.986;2023-01-24T11:13:25;3.60;99.90
32612;DHT22;19030;49.478;8.986;2023-01-24T11:15:31;3.60;99.90
32612;DHT22;19030;49.478;8.986;2023-01-24T11:17:35;3.50;99.90
32612;DHT22;19030;49.478;8.986;2023-01-24T11:19:39;3.50;99.90
32612;DHT22;19030;49.478;8.986;2023-01-24T11:21:54;3.50;99.90
32612;DHT22;19030;49.478;8.986;2023-01-24T11:26:20;3.50;99.90
32612;DHT22;19030;49.478;8.986;2023-01-24T11:30:25;3.50;99.90
32612;DHT22;19030;49.478;8.986;2023-01-24T11:35:16;3.40;99.90
32612;DHT22;19030;49.478;8.986;2023-01-24T11:37:45;3.40;99.90
32612;DHT22;19030;49.478;8.986;2023-01-24T11:42:38;3.40;99.90
32612;DHT22;19030;49.478;8.986;2023-01-24T11:47:22;3.50;99.90
32612;DHT22;19030;49.478;8.986;2023-01-24T11:49:45;3.40;99.90
32612;DHT22;19030;49.478;8.986;2023-01-24T11:54:21;3.40;99.90
32612;DHT22;19030;49.478;8.986;2023-01-24T11:58:42;3.50;99.90
32612;DHT22;19030;49.478;8.986;2023-01-24T12:05:41;3.60;99.90
32612;DHT22;19030;49.478;8.986;2023-01-24T12:08:18;3.70;99.90
32612;DHT22;19030;49.478;8.986;2023-01-24T12:10:41;3.70;99.90
32612;DHT22;19030;49.478;8.986;2023-01-24T12:21:23;3.60;99.90
32612;DHT22;19030;49.478;8.986;2023-01-24T12:23:34;3.50;99.90
32612;DHT22;19030;49.478;8.986;2023-01-24T12:25:38;3.50;99.90
32612;DHT22;19030;49.478;8.986;2023-01-24T12:27:41;3.40;99.90
32612;DHT22;19030;49.478;8.986;2023-01-24T12:29:48;3.40;99.90
32612;DHT22;19030;49.478;8.986;2023-01-24T12:32:07;3.40;99.90
32612;DHT22;19030;49.478;8.986;2023-01-24T12:34:28;3.40;99.90
32612;DHT22;19030;49.478;8.986;2023-01-24T12:36:41;3.40;99.90
32612;DHT22;19030;49.478;8.986;2023-01-24T12:38:45;3.30;99.90
32612;DHT22;19030;49.478;8.986;2023-01-24T12:41:11;3.30;99.90
32612;DHT22;19030;49.478;8.986;2023-01-24T12:43:31;3.30;99.90
32612;DHT22;19030;49.478;8.986;2023-01-24T12:45:40;3.20;99.90
32612;DHT22;19030;49.478;8.986;2023-01-24T12:47:53;3.20;99.90
32612;DHT22;19030;49.478;8.986;2023-01-24T12:50:18;3.20;99.90
32612;DHT22;19030;49.478;8.986;2023-01-24T12:55:00;3.30;99.90
32612;DHT22;19030;49.478;8.986;2023-01-24T12:57:23;3.30;99.90
32612;DHT22;19030;49.478;8.986;2023-01-24T12:59:26;3.30;99.90
32612;DHT22;19030;49.478;8.986;2023-01-24T13:08:37;3.40;99.90
32612;DHT22;19030;49.478;8.986;2023-01-24T13:12:53;3.40;99.90
32612;DHT22;19030;49.478;8.986;2023-01-24T13:15:00;3.40;99.90
32612;DHT22;19030;49.478;8.986;2023-01-24T13:17:42;3.40;99.90
32612;DHT22;19030;49.478;8.986;2023-01-24T13:24:46;3.30;99.90
32612;DHT22;19030;49.478;8.986;2023-01-24T13:27:29;3.30;99.90
32612;DHT22;19030;49.478;8.986;2023-01-24T13:33:56;3.30;99.90
32612;DHT22;19030;49.478;8.986;2023-01-24T13:36:03;3.40;99.90
32612;DHT22;19030;49.478;8.986;2023-01-24T13:38:24;3.40;99.90
32612;DHT22;19030;49.478;8.986;2023-01-24T13:40:28;3.50;99.90
32612;DHT22;19030;49.478;8.986;2023-01-24T13:42:36;3.50;99.90
32612;DHT22;19030;49.478;8.986;2023-01-24T13:44:38;3.60;99.90
32612;DHT22;19030;49.478;8.986;2023-01-24T13:48:46;3.60;99.90
32612;DHT22;19030;49.478;8.986;2023-01-24T13:53:56;3.50;99.90
32612;DHT22;19030;49.478;8.986;2023-01-24T13:56:01;3.50;99.90
32612;DHT22;19030;49.478;8.986;2023-01-24T14:02:31;3.30;99.90
32612;DHT22;19030;49.478;8.986;2023-01-24T14:04:39;3.30;99.90
32612;DHT22;19030;49.478;8.986;2023-01-24T14:06:43;3.30;99.90
32612;DHT22;19030;49.478;8.986;2023-01-24T14:08:48;3.30;99.90
32612;DHT22;19030;49.478;8.986;2023-01-24T14:10:51;3.30;99.90
32612;DHT22;19030;49.478;8.986;2023-01-24T14:15:48;3.40;99.90
32612;DHT22;19030;49.478;8.986;2023-01-24T14:17:49;3.40;99.90
32612;DHT22;19030;49.478;8.986;2023-01-24T14:19:52;3.30;99.90
32612;DHT22;19030;49.478;8.986;2023-01-24T14:24:29;3.30;99.90
32612;DHT22;19030;49.478;8.986;2023-01-24T14:26:30;3.20;99.90
32612;DHT22;19030;49.478;8.986;2023-01-24T14:28:40;3.20;99.90
32612;DHT22;19030;49.478;8.986;2023-01-24T14:30:47;3.20;99.90
32612;DHT22;19030;49.478;8.986;2023-01-24T14:32:55;3.20;99.90
32612;DHT22;19030;49.478;8.986;2023-01-24T14:35:25;3.20;99.90
32612;DHT22;19030;49.478;8.986;2023-01-24T14:37:30;3.20;99.90
32612;DHT22;19030;49.478;8.986;2023-01-24T14:39:31;3.20;99.90
32612;DHT22;19030;49.478;8.986;2023-01-24T14:41:31;3.20;99.90
32612;DHT22;19030;49.478;8.986;2023-01-24T14:43:36;3.20;99.90
32612;DHT22;19030;49.478;8.986;2023-01-24T14:45:37;3.20;99.90
32612;DHT22;19030;49.478;8.986;2023-01-24T14:47:38;3.20;99.90
32612;DHT22;19030;49.478;8.986;2023-01-24T14:49:44;3.20;99.90
32612;DHT22;19030;49.478;8.986;2023-01-24T14:51:45;3.20;99.90
32612;DHT22;19030;49.478;8.986;2023-01-24T14:53:47;3.10;99.90